x

Northwestern Hawaii Two - 190nm Nw Of Kauai Is, Hi (51101) Wave Buoy

4:50pm - Mon 25th May 2015 All times are HST. -10 hours from GMT.

  • Sig Wave height 5.9ft
  • Swell Direction
  • Peak Period 13s
  • Average Period 7s
  • Wind
    18mph, 22mph gusts
  • Sea Temp 76°f
  • Air Temp 72°f
  • Sea Pressure 1015.5mb
  • Northwestern Hawaii Two - 190nm Nw Of Kauai Is, Hi
  • Northwestern Hawaii Two - 190nm Nw Of Kauai Is, Hi

More Historic Weather Station data

Upgrade to MSW Pro to gain access to the past 30 days of data for over 8000 Wavebouys and Weather Stations around the globe.

Join Pro

Comparision Forecast

View Surf forecast
   
Mon 05/25 4:50pm 6ft 13s 7s 18 22 mph 1015.5mb 76f 72f
3:50pm 5ft 13s 6s 16 20 mph 1015.8mb 76f 73f
2:50pm 5.5ft 13s 6s 16 20 mph 1016.3mb 76f 72f
1:50pm 6ft 14s 7s 13 18 mph 1016.8mb 76f 73f
12:50pm 6ft 14s 7s 16 18 mph 1017.4mb 75f 73f
11:50am 5.5ft 14s 6s 13 16 mph 1017.8mb 75f 73f
10:50am 6ft 10s 7s 11 13 mph 1018.1mb 75f 72f
9:50am 6.5ft 14s 6s 11 16 mph 1018.3mb 75f 72f
8:50am 6.5ft 14s 6s 16 20 mph 1018.2mb 75f 71f
7:50am 6.5ft 14s 7s 16 18 mph 1018mb 75f 73f
6:50am 7ft 14s 6s 16 18 mph 1017.6mb 75f 73f
5:50am 7ft 14s 6s 18 20 mph 1017.2mb 75f 73f
4:50am 7ft 14s 7s 18 22 mph 1017.2mb 75f 72f
3:50am 7ft 14s 6s 20 22 mph 1017.2mb 75f 73f
2:50am 7ft 14s 6s 18 22 mph 1017.4mb 75f 72f
1:50am 7.5ft 15s 7s 20 22 mph 1017.9mb 75f 72f
12:50am 7ft 15s 7s 18 22 mph 1018.6mb 75f 72f
Sun 05/24 11:50pm 7.5ft 15s 7s 20 22 mph 1019mb 75f 72f
10:50pm 7ft 15s 7s 20 29 mph 1019.8mb 76f 70f
9:50pm 7ft 15s 6s 16 18 mph 1019.9mb 76f 72f
8:50pm 7ft 15s 6s 25 29 mph 1019.5mb 76f 70f
7:50pm 7ft 15s 6s 20 25 mph 1019.3mb 76f 72f
6:50pm 6.5ft 15s 6s 18 25 mph 1018.8mb 76f 71f
5:50pm 6ft 10s 6s 20 27 mph 1018.8mb 76f 70f
4:50pm 6.5ft 16s 7s 22 34 mph 1018.7mb 76f 71f
3:50pm 7ft 16s 7s 20 22 mph 1019.1mb 76f 71f
2:50pm 7ft 16s 6s 13 18 mph 1019.9mb 76f 70f
1:50pm 6.5ft 16s 7s 16 18 mph 1020.3mb 76f 71f
12:50pm 6.5ft 16s 6s 16 20 mph 1020.8mb 76f 70f
11:50am 7ft 16s 6s 18 20 mph 1021.2mb 76f 71f
10:50am 6.5ft 9s 6s 18 22 mph 1021.2mb 76f 72f
9:50am 8ft 17s 7s 18 22 mph 1021.3mb 76f 72f
8:50am 7.5ft 10s 6s 18 22 mph 1021.4mb 76f 71f
7:50am 6.5ft 10s 6s 20 25 mph 1021.2mb 76f 71f
6:50am 7ft 10s 6s 18 22 mph 1021mb 76f 71f
5:50am 7ft 11s 6s 18 22 mph 1020.5mb 76f 71f
4:50am 6.5ft 10s 6s 18 22 mph 1020.3mb 76f 71f
3:50am 6.5ft 11s 6s 20 25 mph 1020.4mb 76f 72f
2:50am 7ft 11s 6s 20 25 mph 1020.3mb 76f 71f
1:50am 7ft 11s 6s 16 20 mph 1020.7mb 76f 71f
12:50am 7ft 11s 6s 18 22 mph 1021.3mb 76f 72f
Sat 05/23 11:50pm 7ft 10s 6s 18 22 mph 1021.6mb 76f 72f
10:50pm 7ft 11s 6s 18 22 mph 1021.5mb 76f 72f
9:50pm 7ft 11s 6s 18 22 mph 1021.1mb 76f 72f
8:50pm 7ft 10s 6s 18 22 mph 1020.7mb 76f 72f
7:50pm 7ft 10s 6s 20 25 mph 1020.4mb 76f 72f
6:50pm 7ft 14s 6s 22 27 mph 1019.6mb 76f 71f
5:50pm 6.5ft 8s 6s 20 25 mph 1019.6mb 76f 72f
4:50pm 6.5ft 11s 6s 20 25 mph 1019.5mb 76f 72f
3:50pm 6ft 10s 6s 18 25 mph 1019.8mb 76f 72f
2:50pm 7ft 10s 6s 20 22 mph 1020.1mb 76f 72f
1:50pm 6ft 10s 6s 20 25 mph 1020mb 76f 72f
12:50pm 6ft 11s 6s 18 22 mph 1020.2mb 76f 72f
11:50am 6.5ft 8s 6s 16 20 mph 1020.4mb 76f 72f
10:50am 6ft 8s 6s 18 22 mph 1020.3mb 76f 72f
9:50am 6.5ft 8s 6s 18 22 mph 1020.3mb 76f 72f
8:50am 6ft 11s 6s 13 18 mph 1020.1mb 76f 72f
7:50am 7ft 8s 6s 16 18 mph 1019.7mb 76f 72f
6:50am 7ft 7s 6s 18 22 mph 1019mb 76f 72f
5:50am 7ft 8s 6s 18 20 mph 1018.5mb 76f 71f
4:50am 8ft 8s 6s 13 18 mph 1018.7mb 76f 72f
3:50am 8ft 8s 6s 18 22 mph 1018.4mb 76f 72f
2:50am 8ft 8s 6s 18 25 mph 1018.6mb 76f 72f
1:50am 8ft 8s 6s 18 25 mph 1018.9mb 76f 72f
12:50am 7.5ft 8s 6s 18 22 mph 1019.3mb 76f 72f
Fri 05/22 11:50pm 7.5ft 8s 6s 18 25 mph 1019.6mb 76f 72f
10:50pm 8ft 8s 6s 18 22 mph 1019.5mb 76f 72f
9:50pm 8ft 8s 6s 18 25 mph 1019mb 76f 73f
8:50pm 8ft 8s 6s 20 22 mph 1018.3mb 76f 73f
7:50pm 8ft 8s 7s 20 25 mph 1017.5mb 76f 73f
6:50pm 8ft 8s 7s 18 22 mph 1017.1mb 76f 73f
5:50pm 8ft 8s 7s 20 22 mph 1016.7mb 76f 73f
4:50pm 7ft 11s 6s 20 22 mph 1016.5mb 76f 73f
3:50pm 7ft 9s 6s 18 20 mph 1016.6mb 76f 73f
2:50pm 7ft 8s 6s 18 22 mph 1016.8mb 76f 73f
1:50pm 7.5ft 8s 6s 20 25 mph 1017mb 76f 73f
12:50pm 7ft 8s 6s 20 22 mph 1017mb 76f 72f
11:50am 7ft 8s 6s 22 27 mph 1017.2mb 76f 73f
10:50am 7.5ft 8s 6s 20 25 mph 1017mb 76f 73f
9:50am 8ft 8s 6s 18 25 mph 1016.8mb 76f 73f
8:50am 7.5ft 8s 6s 20 25 mph 1016.6mb 76f 73f
7:50am 8ft 9s 6s 20 25 mph 1016.3mb 76f 73f
6:50am 8ft 8s 6s 20 25 mph 1015.5mb 76f 73f
5:50am 8.5ft 8s 7s 18 22 mph 1014.8mb 76f 73f
4:50am 8ft 8s 6s 20 25 mph 1014.6mb 76f 73f